• Join FlightAware (Why Join?)
  • Login
  • US Flag 
09:53PM EDT


 

Airport Tracker/Info


-or-


 

Live Flight TrackerFlight Track Log ✈ SVA1484 ✈ 31-Mar-2014 ✈ OEJN / JED - OEPA / AQI

Flight Track Log - Related Links

Times and Time Zones

All times are in EDT time to prevent confusion due to time zone crossing. See the SVA1484 flight status page for this flight to view local times or setup timezone preferences in your user account.

Time Position Orientation Groundspeed Altitude Reporting Facility
EDT Latitude Longitude Course Direction KTS MPH feet Rate Location/Type
09:38AM 21.9195 39.3902 42° Northeast  Level Estimated
09:39AM 22.0180 39.4864 42° Northeast  Level Estimated
09:40AM 22.1164 39.5827 42° Northeast  Level Estimated
09:41AM 22.2147 39.6791 42° Northeast  Level Estimated
09:42AM 22.3130 39.7757 42° Northeast  Level Estimated
09:43AM 22.4112 39.8724 42° Northeast  Level Estimated
09:44AM 22.5094 39.9693 42° Northeast  Level Estimated
09:45AM 22.6075 40.0663 42° Northeast  Level Estimated
09:46AM 22.7055 40.1634 42° Northeast  Level Estimated
09:47AM 22.8035 40.2607 42° Northeast  Level Estimated
09:48AM 22.9015 40.3581 42° Northeast  Level Estimated
09:49AM 22.9993 40.4556 43° Northeast  Level Estimated
09:50AM 23.0971 40.5533 43° Northeast  Level Estimated
09:51AM 23.1949 40.6511 43° Northeast  Level Estimated
09:52AM 23.2926 40.7491 43° Northeast  Level Estimated
09:53AM 23.3902 40.8472 43° Northeast  Level Estimated
09:54AM 23.4878 40.9455 43° Northeast  Level Estimated
09:55AM 23.5853 41.0439 43° Northeast  Level Estimated
09:56AM 23.6827 41.1425 43° Northeast  Level Estimated
09:57AM 23.7801 41.2412 43° Northeast  Level Estimated
09:58AM 23.8774 41.3400 43° Northeast  Level Estimated
09:59AM 23.9747 41.4390 43° Northeast  Level Estimated
10:00AM 24.0719 41.5382 43° Northeast  Level Estimated
10:01AM 24.1690 41.6375 43° Northeast  Level Estimated
10:02AM 24.2661 41.7369 43° Northeast  Level Estimated
10:03AM 24.3631 41.8365 43° Northeast  Level Estimated
10:04AM 24.4600 41.9363 43° Northeast  Level Estimated
10:05AM 24.5569 42.0362 43° Northeast  Level Estimated
10:06AM 24.6537 42.1362 43° Northeast  Level Estimated
10:07AM 24.7504 42.2365 43° Northeast  Level Estimated
10:08AM 24.8471 42.3368 43° Northeast  Level Estimated
10:09AM 24.9437 42.4374 43° Northeast  Level Estimated
10:10AM 25.0402 42.5380 43° Northeast  Level Estimated
10:11AM 25.1367 42.6389 43° Northeast  Level Estimated
10:12AM 25.2330 42.7399 43° Northeast  Level Estimated
10:13AM 25.3294 42.8411 43° Northeast  Level Estimated
10:14AM 25.4256 42.9424 44° Northeast  Level Estimated
10:15AM 25.5218 43.0439 44° Northeast  Level Estimated
10:16AM 25.6180 43.1455 44° Northeast  Level Estimated
10:17AM 25.7140 43.2473 44° Northeast  Level Estimated
10:18AM 25.8100 43.3493 44° Northeast  Level Estimated
10:19AM 25.9059 43.4515 44° Northeast  Level Estimated
10:20AM 26.0017 43.5538 44° Northeast  Level Estimated
10:21AM 26.0975 43.6563 44° Northeast  Level Estimated
10:22AM 26.1932 43.7589 44° Northeast  Level Estimated
10:23AM 26.2888 43.8617 44° Northeast  Level Estimated
10:24AM 26.3843 43.9647 44° Northeast  Level Estimated
10:25AM 26.4798 44.0679 44° Northeast  Level Estimated
10:26AM 26.5752 44.1712 44° Northeast  Level Estimated
10:27AM 26.6705 44.2747 44° Northeast  Level Estimated
10:28AM 26.7658 44.3784 44° Northeast  Level Estimated
10:29AM 26.8609 44.4822 44° Northeast  Level Estimated
10:30AM 26.9560 44.5862 44° Northeast  Level Estimated
10:31AM 27.0511 44.6904 44° Northeast  Level Estimated
10:32AM 27.1460 44.7948 44° Northeast  Level Estimated
10:33AM 27.2409 44.8994 44° Northeast  Level Estimated
10:34AM 27.3356 45.0041 44° Northeast  Level Estimated
10:35AM 27.4304 45.1090 45° Northeast  Level Estimated
10:36AM 27.5250 45.2141 45° Northeast  Level Estimated
10:37AM 27.6195 45.3194 45° Northeast  Level Estimated
10:38AM 27.7140 45.4248 45° Northeast  Level Estimated
10:39AM 27.8084 45.5304 45° Northeast  Level Estimated
10:40AM 27.9027 45.6363 45° Northeast  Level Estimated
10:41AM 27.9969 45.7423 45° Northeast  Level Estimated
10:42AM 28.0911 45.8484 45° Northeast  Level Estimated
10:43AM 28.1852 45.9548 45° Northeast  Level Estimated
10:44AM 28.2791 46.0614 45° Northeast  Level Estimated
10:45AM 28.3352 46.1251 45° Northeast  Level Estimated
10:46AM 28.3352 46.1251 North  Level Estimated
10:47AM 28.3352 46.1251 North  Level Estimated
10:48AM 28.3352 46.1251 North  Level Estimated
10:49AM 28.3352 46.1251 North  Level Estimated
10:50AM 28.3352 46.1251 North  Level Estimated
10:51AM 28.3352 46.1251 North  Level Estimated
10:52AM 28.3352 46.1251 North  Level Estimated
10:53AM 28.3352 46.1251 North  Level Estimated
10:54AM 28.3352 46.1251 North  Level Estimated
10:55AM 28.3352 46.1251 North  Level Estimated
10:56AM 28.3352 46.1251 North  Level Estimated
10:57AM 28.3352 46.1251 North  Level Estimated
10:58AM 28.3352 46.1251 North  Level Estimated
10:59AM 28.3352 46.1251 North  Level Estimated